createdAt,value
2018-05-13T00:00:47.103Z,0
2018-05-13T00:01:55.750Z,0
2018-05-13T00:03:04.401Z,0
2018-05-13T00:04:13.319Z,0
2018-05-13T00:05:22.061Z,0
2018-05-13T00:06:30.608Z,0
2018-05-13T00:07:39.260Z,0
2018-05-13T00:08:47.900Z,0
2018-05-13T00:09:56.549Z,0
2018-05-13T00:11:05.452Z,0
2018-05-13T00:12:14.100Z,0
2018-05-13T00:13:22.745Z,0
2018-05-13T00:14:31.405Z,0
2018-05-13T00:15:40.318Z,0
2018-05-13T00:16:48.956Z,0
2018-05-13T00:17:57.601Z,0
2018-05-13T00:19:06.251Z,0
2018-05-13T00:20:14.902Z,0
2018-05-13T00:21:23.545Z,0
2018-05-13T00:22:32.191Z,0
2018-05-13T00:23:40.842Z,0
2018-05-13T00:24:49.490Z,0
2018-05-13T00:25:58.130Z,0
2018-05-13T00:27:06.778Z,0
2018-05-13T00:28:15.419Z,0
2018-05-13T00:29:24.074Z,0
2018-05-13T00:30:32.716Z,0
2018-05-13T00:31:41.357Z,0
2018-05-13T00:32:50.012Z,0
2018-05-13T00:33:58.916Z,0
2018-05-13T00:35:07.836Z,0
2018-05-13T00:36:16.750Z,0
2018-05-13T00:37:25.402Z,0
2018-05-13T00:38:34.047Z,0
2018-05-13T00:39:42.703Z,0
2018-05-13T00:40:51.609Z,0
2018-05-13T00:42:00.260Z,0
2018-05-13T00:43:08.904Z,0
2018-05-13T00:44:17.560Z,0
2018-05-13T00:45:26.204Z,0
2018-05-13T00:46:34.856Z,0
2018-05-13T00:47:43.497Z,0
2018-05-13T00:48:52.414Z,0
2018-05-13T00:50:01.058Z,0
2018-05-13T00:51:09.707Z,0
2018-05-13T00:52:18.355Z,0
2018-05-13T00:53:26.992Z,0
2018-05-13T00:54:35.643Z,0
2018-05-13T00:55:44.282Z,0
2018-05-13T00:56:52.940Z,0
2018-05-13T00:58:01.577Z,0
2018-05-13T00:59:10.228Z,0
2018-05-13T01:00:18.873Z,0
2018-05-13T01:01:27.524Z,0
2018-05-13T01:02:36.161Z,0
2018-05-13T01:03:44.811Z,0
2018-05-13T01:04:53.985Z,0
2018-05-13T01:06:02.640Z,0
2018-05-13T01:07:11.285Z,0
2018-05-13T01:08:20.196Z,0
2018-05-13T01:09:29.104Z,0
2018-05-13T01:10:37.751Z,0
2018-05-13T01:11:46.403Z,0
2018-05-13T01:12:55.043Z,0
2018-05-13T01:14:03.962Z,0
2018-05-13T01:15:12.601Z,0
2018-05-13T01:16:21.256Z,0
2018-05-13T01:17:29.896Z,0
2018-05-13T01:18:38.546Z,0
2018-05-13T01:19:47.181Z,0
2018-05-13T01:20:55.839Z,0
2018-05-13T01:22:04.482Z,0
2018-05-13T01:23:13.129Z,0
2018-05-13T01:24:22.034Z,0
2018-05-13T01:25:30.681Z,0
2018-05-13T01:26:39.331Z,0
2018-05-13T01:27:47.975Z,0
2018-05-13T01:28:56.618Z,0
2018-05-13T01:30:05.270Z,0
2018-05-13T01:31:14.181Z,0
2018-05-13T01:32:22.827Z,0
2018-05-13T01:33:31.469Z,0
2018-05-13T01:34:40.131Z,0
2018-05-13T01:35:48.777Z,0
2018-05-13T01:36:57.684Z,0
2018-05-13T01:38:06.326Z,0
2018-05-13T01:39:15.249Z,0
2018-05-13T01:40:23.888Z,0
2018-05-13T01:41:32.537Z,0
2018-05-13T01:42:41.177Z,0
2018-05-13T01:43:49.832Z,0
2018-05-13T01:44:58.753Z,0
2018-05-13T01:46:07.398Z,0
2018-05-13T01:47:16.049Z,0
2018-05-13T01:48:24.689Z,0
2018-05-13T01:49:33.339Z,0
2018-05-13T01:50:41.987Z,0
2018-05-13T01:51:50.638Z,0
2018-05-13T01:52:59.553Z,0
2018-05-13T01:54:08.464Z,0
2018-05-13T01:55:17.110Z,0
2018-05-13T01:56:25.759Z,0
2018-05-13T01:57:34.401Z,0
2018-05-13T01:58:43.052Z,0
2018-05-13T01:59:51.691Z,0
2018-05-13T02:01:00.340Z,0
2018-05-13T02:02:08.983Z,0
2018-05-13T02:03:17.628Z,0
2018-05-13T02:04:26.537Z,0
2018-05-13T02:05:35.180Z,0
2018-05-13T02:06:43.830Z,0
2018-05-13T02:07:52.476Z,0
2018-05-13T02:09:01.121Z,0
2018-05-13T02:10:09.763Z,0
2018-05-13T02:11:18.679Z,0
2018-05-13T02:12:27.325Z,0
2018-05-13T02:13:35.973Z,0
2018-05-13T02:14:44.614Z,0
2018-05-13T02:15:53.529Z,0
2018-05-13T02:17:02.175Z,0
2018-05-13T02:18:10.823Z,0
2018-05-13T02:19:19.465Z,0
2018-05-13T02:20:28.110Z,0
2018-05-13T02:21:36.761Z,0
2018-05-13T02:22:45.412Z,0
2018-05-13T02:23:54.060Z,0
2018-05-13T02:25:02.703Z,0
2018-05-13T02:26:11.351Z,0
2018-05-13T02:27:19.991Z,0
2018-05-13T02:28:28.912Z,0
2018-05-13T02:29:37.549Z,0
2018-05-13T02:30:46.198Z,0
2018-05-13T02:31:55.113Z,0
2018-05-13T02:33:04.043Z,0
2018-05-13T02:34:12.681Z,0
2018-05-13T02:35:21.329Z,0
2018-05-13T02:36:29.973Z,0
2018-05-13T02:37:38.635Z,0
2018-05-13T02:38:47.543Z,0
2018-05-13T02:39:56.184Z,0
2018-05-13T02:41:04.829Z,0
2018-05-13T02:42:14.266Z,0
2018-05-13T02:43:22.922Z,0
2018-05-13T02:44:31.561Z,0
2018-05-13T02:45:40.489Z,0
2018-05-13T02:46:49.113Z,0
2018-05-13T02:47:58.038Z,0
2018-05-13T02:49:06.686Z,0
2018-05-13T02:50:15.342Z,0
2018-05-13T02:51:23.975Z,0
2018-05-13T02:52:32.632Z,0
2018-05-13T02:53:41.278Z,0
2018-05-13T02:54:50.190Z,0
2018-05-13T02:55:59.093Z,0
2018-05-13T02:57:08.023Z,0
2018-05-13T02:58:16.684Z,0
2018-05-13T02:59:25.331Z,0
2018-05-13T03:00:33.978Z,0
2018-05-13T03:01:42.619Z,4
2018-05-13T03:02:51.272Z,0
2018-05-13T03:03:59.922Z,0
2018-05-13T03:05:08.579Z,0
2018-05-13T03:06:17.222Z,4
2018-05-13T03:07:25.875Z,0
2018-05-13T03:08:34.784Z,4
2018-05-13T03:09:43.710Z,0
2018-05-13T03:10:52.349Z,4
2018-05-13T03:12:01.275Z,4
2018-05-13T03:13:10.186Z,0
2018-05-13T03:14:18.853Z,4
2018-05-13T03:15:27.493Z,4
2018-05-13T03:16:36.135Z,8
2018-05-13T03:17:45.064Z,4
2018-05-13T03:18:53.703Z,8
2018-05-13T03:20:02.362Z,8
2018-05-13T03:21:11.004Z,8
2018-05-13T03:22:19.657Z,8
2018-05-13T03:23:28.296Z,8
2018-05-13T03:24:36.943Z,12
2018-05-13T03:25:45.591Z,12
2018-05-13T03:26:54.233Z,12
2018-05-13T03:28:02.887Z,12
2018-05-13T03:29:11.523Z,12
2018-05-13T03:30:20.174Z,12
2018-05-13T03:31:28.826Z,20
2018-05-13T03:32:37.481Z,20
2018-05-13T03:33:46.122Z,20
2018-05-13T03:34:55.029Z,20
2018-05-13T03:36:03.671Z,24
2018-05-13T03:37:12.587Z,32
2018-05-13T03:38:21.245Z,36
2018-05-13T03:39:30.161Z,36
2018-05-13T03:40:38.902Z,36
2018-05-13T03:41:47.445Z,36
2018-05-13T03:42:56.103Z,40
2018-05-13T03:44:04.745Z,40
2018-05-13T03:45:13.393Z,44
2018-05-13T03:46:22.035Z,48
2018-05-13T03:47:30.684Z,48
2018-05-13T03:48:39.327Z,56
2018-05-13T03:49:47.978Z,60
2018-05-13T03:50:56.617Z,64
2018-05-13T03:52:05.262Z,60
2018-05-13T03:53:13.911Z,56
2018-05-13T03:54:22.561Z,56
2018-05-13T03:55:31.470Z,56
2018-05-13T03:56:40.108Z,60
2018-05-13T03:57:48.757Z,64
2018-05-13T03:58:57.667Z,68
2018-05-13T04:00:06.317Z,68
2018-05-13T04:01:14.952Z,68
2018-05-13T04:02:23.604Z,76
2018-05-13T04:03:32.243Z,88
2018-05-13T04:04:40.902Z,100
2018-05-13T04:05:49.537Z,112
2018-05-13T04:06:58.449Z,128
2018-05-13T04:08:07.100Z,144
2018-05-13T04:09:15.754Z,160
2018-05-13T04:10:24.398Z,180
2018-05-13T04:11:33.040Z,216
2018-05-13T04:12:41.683Z,252
2018-05-13T04:13:50.325Z,284
2018-05-13T04:14:58.978Z,304
2018-05-13T04:16:07.890Z,312
2018-05-13T04:17:16.542Z,324
2018-05-13T04:18:25.177Z,348
2018-05-13T04:19:33.830Z,376
2018-05-13T04:20:42.478Z,408
2018-05-13T04:21:51.392Z,440
2018-05-13T04:23:00.292Z,460
2018-05-13T04:24:08.946Z,464
2018-05-13T04:25:17.611Z,452
2018-05-13T04:26:26.243Z,440
2018-05-13T04:27:34.888Z,440
2018-05-13T04:28:43.533Z,452
2018-05-13T04:29:52.182Z,456
2018-05-13T04:31:01.097Z,464
2018-05-13T04:32:09.745Z,476
2018-05-13T04:33:18.396Z,496
2018-05-13T04:34:27.044Z,508
2018-05-13T04:35:35.958Z,500
2018-05-13T04:36:44.607Z,484
2018-05-13T04:37:53.251Z,456
2018-05-13T04:39:02.170Z,452
2018-05-13T04:40:11.082Z,436
2018-05-13T04:41:20.006Z,448
2018-05-13T04:42:28.648Z,460
2018-05-13T04:43:37.297Z,472
2018-05-13T04:44:46.285Z,468
2018-05-13T04:45:54.936Z,460
2018-05-13T04:47:03.580Z,448
2018-05-13T04:48:12.225Z,436
2018-05-13T04:49:20.868Z,420
2018-05-13T04:50:29.508Z,420
2018-05-13T04:51:38.158Z,456
2018-05-13T04:52:46.804Z,508
2018-05-13T04:53:55.449Z,576
2018-05-13T04:55:04.090Z,640
2018-05-13T04:56:12.743Z,648
2018-05-13T04:57:21.649Z,620
2018-05-13T04:58:30.566Z,600
2018-05-13T04:59:39.469Z,568
2018-05-13T05:00:48.123Z,544
2018-05-13T05:01:57.029Z,524
2018-05-13T05:03:05.676Z,484
2018-05-13T05:04:14.318Z,448
2018-05-13T05:05:22.964Z,404
2018-05-13T05:06:31.614Z,344
2018-05-13T05:07:40.255Z,296
2018-05-13T05:08:48.904Z,252
2018-05-13T05:09:57.543Z,212
2018-05-13T05:11:06.190Z,192
2018-05-13T05:12:15.103Z,184
2018-05-13T05:13:23.754Z,184
2018-05-13T05:14:32.393Z,200
2018-05-13T05:15:41.039Z,216
2018-05-13T05:16:49.948Z,232
2018-05-13T05:17:58.605Z,244
2018-05-13T05:19:07.246Z,256
2018-05-13T05:20:15.895Z,276
2018-05-13T05:21:24.537Z,292
2018-05-13T05:22:33.192Z,316
2018-05-13T05:23:41.833Z,332
2018-05-13T05:24:50.475Z,332
2018-05-13T05:25:59.117Z,324
2018-05-13T05:27:07.761Z,304
2018-05-13T05:28:16.417Z,300
2018-05-13T05:29:25.056Z,344
2018-05-13T05:30:33.706Z,432
2018-05-13T05:31:42.340Z,520
2018-05-13T05:32:51.265Z,632
2018-05-13T05:34:00.176Z,684
2018-05-13T05:35:08.825Z,720
2018-05-13T05:36:17.470Z,776
2018-05-13T05:37:26.124Z,824
2018-05-13T05:38:34.764Z,864
2018-05-13T05:39:43.412Z,904
2018-05-13T05:40:52.062Z,960
2018-05-13T05:42:00.972Z,1040
2018-05-13T05:43:09.888Z,1160
2018-05-13T05:44:18.537Z,1328
2018-05-13T05:45:27.184Z,1504
2018-05-13T05:46:35.820Z,1672
2018-05-13T05:47:44.471Z,1804
2018-05-13T05:48:53.112Z,1904
2018-05-13T05:50:01.768Z,1968
2018-05-13T05:51:10.406Z,1992
2018-05-13T05:52:19.057Z,2008
2018-05-13T05:53:27.705Z,2072
2018-05-13T05:54:36.625Z,2152
2018-05-13T05:55:45.267Z,2268
2018-05-13T05:56:53.916Z,2264
2018-05-13T05:58:02.560Z,2360
2018-05-13T05:59:11.214Z,2508
2018-05-13T06:00:19.858Z,2644
2018-05-13T06:01:28.499Z,2728
2018-05-13T06:02:37.409Z,2864
2018-05-13T06:03:46.578Z,2892
2018-05-13T06:04:55.233Z,2864
2018-05-13T06:06:03.875Z,2892
2018-05-13T06:07:12.529Z,2964
2018-05-13T06:08:21.167Z,3156
2018-05-13T06:09:29.819Z,3432
2018-05-13T06:10:38.453Z,3716
2018-05-13T06:11:47.107Z,3960
2018-05-13T06:12:55.742Z,4156
2018-05-13T06:14:04.756Z,4296
2018-05-13T06:15:13.399Z,4352
2018-05-13T06:16:22.325Z,4344
2018-05-13T06:17:31.224Z,4268
2018-05-13T06:18:39.874Z,4176
2018-05-13T06:19:48.526Z,4124
2018-05-13T06:20:57.439Z,4036
2018-05-13T06:22:06.092Z,3940
2018-05-13T06:23:14.735Z,3840
2018-05-13T06:24:23.382Z,3776
2018-05-13T06:25:32.029Z,3744
2018-05-13T06:26:40.680Z,3704
2018-05-13T06:27:49.586Z,3684
2018-05-13T06:28:58.498Z,3684
2018-05-13T06:30:07.144Z,3648
2018-05-13T06:31:16.073Z,3624
2018-05-13T06:32:24.716Z,3528
2018-05-13T06:33:33.373Z,3576
2018-05-13T06:34:42.016Z,3556
2018-05-13T06:35:50.672Z,3592
2018-05-13T06:36:59.590Z,3620
2018-05-13T06:38:08.503Z,3628
2018-05-13T06:39:17.150Z,3660
2018-05-13T06:40:25.795Z,3660
2018-05-13T06:41:34.448Z,3632
2018-05-13T06:42:43.093Z,3632
2018-05-13T06:43:51.743Z,3616
2018-05-13T06:45:00.383Z,3388
2018-05-13T06:46:09.305Z,3604
2018-05-13T06:47:17.952Z,3708
2018-05-13T06:48:26.600Z,3692
2018-05-13T06:49:35.243Z,3812
2018-05-13T06:50:43.896Z,3980
2018-05-13T06:51:52.544Z,4196
2018-05-13T06:53:01.455Z,4404
2018-05-13T06:54:10.101Z,4568
2018-05-13T06:55:18.751Z,4808
2018-05-13T06:56:27.397Z,5396
2018-05-13T06:57:36.309Z,5468
2018-05-13T06:58:44.961Z,5620
2018-05-13T06:59:53.875Z,5748
2018-05-13T07:01:02.523Z,5560
2018-05-13T07:02:11.172Z,5540
2018-05-13T07:03:20.097Z,5464
2018-05-13T07:04:28.741Z,5568
2018-05-13T07:05:37.390Z,5296
2018-05-13T07:06:46.037Z,4888
2018-05-13T07:07:54.695Z,4756
2018-05-13T07:09:03.351Z,4508
2018-05-13T07:10:11.989Z,4408
2018-05-13T07:11:20.637Z,4340
2018-05-13T07:12:29.291Z,4492
2018-05-13T07:13:37.936Z,4376
2018-05-13T07:14:46.585Z,4264
2018-05-13T07:15:55.236Z,4204
2018-05-13T07:17:03.886Z,4140
2018-05-13T07:18:12.540Z,4116
2018-05-13T07:19:21.187Z,4080
2018-05-13T07:20:30.117Z,4000
2018-05-13T07:21:39.033Z,3952
2018-05-13T07:22:47.678Z,3976
2018-05-13T07:23:56.326Z,3980
2018-05-13T07:25:04.980Z,4012
2018-05-13T07:26:13.630Z,4040
2018-05-13T07:27:22.274Z,4112
2018-05-13T07:28:30.926Z,4124
2018-05-13T07:29:39.597Z,4132
2018-05-13T07:30:48.236Z,4076
2018-05-13T07:31:57.147Z,4040
2018-05-13T07:33:05.798Z,4056
2018-05-13T07:34:14.445Z,4108
2018-05-13T07:35:23.090Z,3996
2018-05-13T07:36:31.743Z,3820
2018-05-13T07:37:40.391Z,3716
2018-05-13T07:38:49.312Z,3592
2018-05-13T07:39:57.958Z,3824
2018-05-13T07:41:06.610Z,3904
2018-05-13T07:42:15.259Z,3924
2018-05-13T07:43:23.944Z,3780
2018-05-13T07:44:32.953Z,3700
2018-05-13T07:45:41.608Z,3680
2018-05-13T07:46:50.255Z,3748
2018-05-13T07:47:59.171Z,3756
2018-05-13T07:49:07.817Z,3692
2018-05-13T07:50:16.467Z,3604
2018-05-13T07:51:25.383Z,3632
2018-05-13T07:52:34.032Z,3680
2018-05-13T07:53:42.685Z,3716
2018-05-13T07:54:51.329Z,3660
2018-05-13T07:55:59.975Z,3712
2018-05-13T07:57:08.891Z,3744
2018-05-13T07:58:17.814Z,3836
2018-05-13T07:59:26.456Z,3892
2018-05-13T08:00:35.372Z,3916
2018-05-13T08:01:44.026Z,3992
2018-05-13T08:02:52.681Z,4020
2018-05-13T08:04:01.328Z,4124
2018-05-13T08:05:10.247Z,4188
2018-05-13T08:06:18.893Z,4232
2018-05-13T08:07:27.548Z,4204
2018-05-13T08:08:36.235Z,4184
2018-05-13T08:09:45.148Z,4184
2018-05-13T08:10:54.055Z,4284
2018-05-13T08:12:02.705Z,4408
2018-05-13T08:13:11.356Z,4440
2018-05-13T08:14:20.270Z,4416
2018-05-13T08:15:28.921Z,4404
2018-05-13T08:16:37.563Z,4388
2018-05-13T08:17:46.220Z,4304
2018-05-13T08:18:54.865Z,4244
2018-05-13T08:20:03.520Z,4168
2018-05-13T08:21:12.161Z,4044
2018-05-13T08:22:20.820Z,4124
2018-05-13T08:23:29.737Z,4176
2018-05-13T08:24:38.390Z,4156
2018-05-13T08:25:47.032Z,4200
2018-05-13T08:26:55.683Z,4256
2018-05-13T08:28:04.335Z,4292
2018-05-13T08:29:12.987Z,4248
2018-05-13T08:30:21.901Z,4220
2018-05-13T08:31:30.542Z,4172
2018-05-13T08:32:39.196Z,4184
2018-05-13T08:33:48.108Z,4268
2018-05-13T08:34:56.766Z,4292
2018-05-13T08:36:05.412Z,4296
2018-05-13T08:37:14.074Z,4344
2018-05-13T08:38:22.713Z,4444
2018-05-13T08:39:31.370Z,4444
2018-05-13T08:40:40.013Z,4496
2018-05-13T08:41:48.684Z,4528
2018-05-13T08:42:57.316Z,4504
2018-05-13T08:44:05.982Z,4528
2018-05-13T08:45:14.627Z,4568
2018-05-13T08:46:23.273Z,4608
2018-05-13T08:47:31.921Z,4652
2018-05-13T08:48:40.572Z,4632
2018-05-13T08:49:49.231Z,4592
2018-05-13T08:50:57.879Z,4552
2018-05-13T08:52:06.534Z,4376
2018-05-13T08:53:15.175Z,4336
2018-05-13T08:54:23.836Z,4324
2018-05-13T08:55:32.481Z,4328
2018-05-13T08:56:41.137Z,4360
2018-05-13T08:57:49.779Z,4264
2018-05-13T08:58:58.705Z,4256
2018-05-13T09:00:07.358Z,4200
2018-05-13T09:01:16.269Z,4128
2018-05-13T09:02:25.436Z,4208
2018-05-13T09:03:34.359Z,4308
2018-05-13T09:04:43.275Z,4320
2018-05-13T09:05:51.930Z,4420
2018-05-13T09:07:00.582Z,4496
2018-05-13T09:08:09.224Z,4500
2018-05-13T09:09:18.142Z,4684
2018-05-13T09:10:26.789Z,4740
2018-05-13T09:11:35.448Z,4756
2018-05-13T09:12:44.092Z,4776
2018-05-13T09:13:53.011Z,4784
2018-05-13T09:15:01.933Z,4776
2018-05-13T09:16:10.594Z,4744
2018-05-13T09:17:19.236Z,4680
2018-05-13T09:18:27.890Z,4640
2018-05-13T09:19:36.540Z,4600
2018-05-13T09:20:46.108Z,4592
2018-05-13T09:21:54.679Z,4624
2018-05-13T09:23:03.327Z,4584
2018-05-13T09:24:11.975Z,4348
2018-05-13T09:25:20.629Z,4464
2018-05-13T09:26:29.362Z,4212
2018-05-13T09:27:38.287Z,3696
2018-05-13T09:28:47.205Z,4068
2018-05-13T09:29:55.848Z,4336
2018-05-13T09:31:04.508Z,4424
2018-05-13T09:32:13.155Z,3916
2018-05-13T09:33:21.813Z,4012
2018-05-13T09:34:30.452Z,4532
2018-05-13T09:35:39.112Z,4588
2018-05-13T09:36:48.033Z,4548
2018-05-13T09:37:56.949Z,4568
2018-05-13T09:39:05.596Z,4596
2018-05-13T09:40:14.785Z,4596
2018-05-13T09:41:23.439Z,4604
2018-05-13T09:42:32.095Z,4620
2018-05-13T09:43:40.750Z,4688
2018-05-13T09:44:49.390Z,4624
2018-05-13T09:45:58.047Z,4588
2018-05-13T09:47:06.965Z,4544
2018-05-13T09:48:15.626Z,4500
2018-05-13T09:49:24.268Z,4396
2018-05-13T09:50:32.923Z,4192
2018-05-13T09:51:41.566Z,4156
2018-05-13T09:52:50.227Z,4180
2018-05-13T09:53:58.869Z,4248
2018-05-13T09:55:07.523Z,4300
2018-05-13T09:56:16.171Z,4380
2018-05-13T09:57:24.831Z,4292
2018-05-13T09:58:33.481Z,3852
2018-05-13T09:59:42.126Z,3864
2018-05-13T10:00:50.778Z,3828
2018-05-13T10:01:59.425Z,3824
2018-05-13T10:03:08.350Z,4196
2018-05-13T10:04:16.998Z,4568
2018-05-13T10:05:25.655Z,5144
2018-05-13T10:06:34.303Z,5700
2018-05-13T10:07:42.962Z,5832
2018-05-13T10:08:51.611Z,5492
2018-05-13T10:10:00.270Z,5024
2018-05-13T10:11:08.911Z,4696
2018-05-13T10:12:17.571Z,5000
2018-05-13T10:13:26.219Z,4980
2018-05-13T10:14:34.874Z,4928
2018-05-13T10:15:43.788Z,4996
2018-05-13T10:16:52.441Z,4732
2018-05-13T10:18:01.096Z,4244
2018-05-13T10:19:09.752Z,4284
2018-05-13T10:20:18.668Z,4040
2018-05-13T10:21:27.324Z,4544
2018-05-13T10:22:35.969Z,4736
2018-05-13T10:23:44.884Z,4268
2018-05-13T10:24:53.541Z,4512
2018-05-13T10:26:02.187Z,4300
2018-05-13T10:27:10.850Z,4180
2018-05-13T10:28:19.489Z,4496
2018-05-13T10:29:28.146Z,4700
2018-05-13T10:30:36.798Z,4752
2018-05-13T10:31:45.459Z,4740
2018-05-13T10:32:54.108Z,4544
2018-05-13T10:34:03.029Z,4788
2018-05-13T10:35:11.678Z,4852
2018-05-13T10:36:20.694Z,4860
2018-05-13T10:37:29.526Z,4744
2018-05-13T10:38:38.178Z,4668
2018-05-13T10:39:46.836Z,4612
2018-05-13T10:40:55.494Z,4492
2018-05-13T10:42:04.147Z,4560
2018-05-13T10:43:12.794Z,4436
2018-05-13T10:44:21.457Z,4316
2018-05-13T10:45:30.103Z,4328
2018-05-13T10:46:38.755Z,4324
2018-05-13T10:47:47.403Z,4332
2018-05-13T10:48:56.061Z,4200
2018-05-13T10:50:04.717Z,4176
2018-05-13T10:51:13.432Z,4012
2018-05-13T10:52:22.348Z,4048
2018-05-13T10:53:31.003Z,4160
2018-05-13T10:54:39.653Z,4336
2018-05-13T10:55:48.589Z,4432
2018-05-13T10:56:57.244Z,4392
2018-05-13T10:58:05.895Z,4348
2018-05-13T10:59:14.543Z,4324
2018-05-13T11:00:23.198Z,4308
2018-05-13T11:01:31.855Z,4240
2018-05-13T11:02:40.509Z,4244
2018-05-13T11:03:49.161Z,4396
2018-05-13T11:04:57.813Z,4300
2018-05-13T11:06:06.736Z,4328
2018-05-13T11:07:15.647Z,4432
2018-05-13T11:08:24.588Z,4484
2018-05-13T11:09:33.236Z,4248
2018-05-13T11:10:41.894Z,4460
2018-05-13T11:11:50.543Z,4108
2018-05-13T11:12:59.196Z,4444
2018-05-13T11:14:07.848Z,4488
2018-05-13T11:15:16.515Z,4488
2018-05-13T11:16:25.153Z,4548
2018-05-13T11:17:33.806Z,4592
2018-05-13T11:18:42.460Z,4436
2018-05-13T11:19:51.120Z,4544
2018-05-13T11:20:59.772Z,4624
2018-05-13T11:22:08.692Z,4716
2018-05-13T11:23:17.345Z,4740
2018-05-13T11:24:26.004Z,4564
2018-05-13T11:25:34.652Z,4860
2018-05-13T11:26:43.667Z,4924
2018-05-13T11:27:52.227Z,4780
2018-05-13T11:29:00.885Z,4852
2018-05-13T11:30:09.617Z,4700
2018-05-13T11:31:18.194Z,4360
2018-05-13T11:32:26.847Z,4784
2018-05-13T11:33:35.496Z,4872
2018-05-13T11:34:44.156Z,4808
2018-05-13T11:35:53.072Z,4732
2018-05-13T11:37:01.726Z,4772
2018-05-13T11:38:10.375Z,4740
2018-05-13T11:39:19.032Z,4620
2018-05-13T11:40:27.685Z,4760
2018-05-13T11:41:36.340Z,4780
2018-05-13T11:42:44.991Z,4664
2018-05-13T11:43:53.917Z,4588
2018-05-13T11:45:02.568Z,4820
2018-05-13T11:46:11.224Z,5132
2018-05-13T11:47:19.871Z,4608
2018-05-13T11:48:28.789Z,5280
2018-05-13T11:49:37.443Z,5476
2018-05-13T11:50:46.368Z,5256
2018-05-13T11:51:55.022Z,5568
2018-05-13T11:53:03.669Z,4728
2018-05-13T11:54:12.324Z,5296
2018-05-13T11:55:20.972Z,5404
2018-05-13T11:56:29.714Z,5212
2018-05-13T11:57:38.281Z,5180
2018-05-13T11:58:46.935Z,4984
2018-05-13T11:59:55.589Z,5160
2018-05-13T12:01:04.248Z,5348
2018-05-13T12:02:12.957Z,5484
2018-05-13T12:03:21.556Z,5436
2018-05-13T12:04:30.208Z,5520
2018-05-13T12:05:38.865Z,5484
2018-05-13T12:06:47.517Z,5436
2018-05-13T12:07:56.171Z,5420
2018-05-13T12:09:04.823Z,5360
2018-05-13T12:10:13.740Z,5168
2018-05-13T12:11:22.397Z,4856
2018-05-13T12:12:31.324Z,5064
2018-05-13T12:13:39.985Z,4844
2018-05-13T12:14:48.627Z,4812
2018-05-13T12:15:57.289Z,4832
2018-05-13T12:17:05.939Z,5124
2018-05-13T12:18:14.856Z,5148
2018-05-13T12:19:23.504Z,5292
2018-05-13T12:20:32.165Z,5608
2018-05-13T12:21:40.819Z,6064
2018-05-13T12:22:49.739Z,6568
2018-05-13T12:23:58.381Z,6640
2018-05-13T12:25:07.036Z,7124
2018-05-13T12:26:15.695Z,7516
2018-05-13T12:27:24.350Z,7732
2018-05-13T12:28:33.006Z,8252
2018-05-13T12:29:41.654Z,8700
2018-05-13T12:30:50.312Z,8972
2018-05-13T12:31:59.496Z,9132
2018-05-13T12:33:08.421Z,9196
2018-05-13T12:34:17.061Z,9328
2018-05-13T12:35:25.720Z,9344
2018-05-13T12:36:34.634Z,9344
2018-05-13T12:37:43.297Z,9180
2018-05-13T12:38:51.942Z,8884
2018-05-13T12:40:00.601Z,9092
2018-05-13T12:41:09.266Z,8848
2018-05-13T12:42:17.932Z,8236
2018-05-13T12:43:26.589Z,7656
2018-05-13T12:44:35.501Z,7380
2018-05-13T12:45:44.153Z,7172
2018-05-13T12:46:52.807Z,6960
2018-05-13T12:48:01.476Z,7288
2018-05-13T12:49:10.122Z,8160
2018-05-13T12:50:18.781Z,9040
2018-05-13T12:51:27.425Z,8600
2018-05-13T12:52:36.090Z,8240
2018-05-13T12:53:44.740Z,8720
2018-05-13T12:54:53.401Z,7868
2018-05-13T12:56:02.048Z,7340
2018-05-13T12:57:10.709Z,6388
2018-05-13T12:58:19.366Z,4864
2018-05-13T12:59:28.021Z,3932
2018-05-13T13:00:36.665Z,2632
2018-05-13T13:01:45.321Z,1840
2018-05-13T13:02:53.985Z,1264
2018-05-13T13:04:02.906Z,828
2018-05-13T13:05:11.564Z,596
2018-05-13T13:06:20.209Z,472
2018-05-13T13:07:28.867Z,464
2018-05-13T13:08:37.516Z,508
2018-05-13T13:09:46.273Z,508
2018-05-13T13:10:54.824Z,452
2018-05-13T13:12:03.476Z,392
2018-05-13T13:13:12.130Z,352
2018-05-13T13:14:20.784Z,304
2018-05-13T13:15:29.430Z,276
2018-05-13T13:16:38.086Z,244
2018-05-13T13:17:46.738Z,228
2018-05-13T13:18:55.389Z,232
2018-05-13T13:20:04.132Z,240
2018-05-13T13:21:12.738Z,256
2018-05-13T13:22:21.338Z,260
2018-05-13T13:23:29.987Z,272
2018-05-13T13:24:38.642Z,288
2018-05-13T13:25:47.296Z,352
2018-05-13T13:26:55.938Z,408
2018-05-13T13:28:04.582Z,484
2018-05-13T13:29:13.242Z,568
2018-05-13T13:30:22.562Z,692
2018-05-13T13:31:31.166Z,876
2018-05-13T13:32:39.811Z,1000
2018-05-13T13:33:48.462Z,1132
2018-05-13T13:34:57.373Z,1272
2018-05-13T13:36:06.024Z,1492
2018-05-13T13:37:14.668Z,1608
2018-05-13T13:38:23.576Z,1668
2018-05-13T13:39:32.223Z,1560
2018-05-13T13:40:40.876Z,1300
2018-05-13T13:41:49.792Z,1036
2018-05-13T13:42:58.437Z,860
2018-05-13T13:44:07.083Z,784
2018-05-13T13:45:15.728Z,804
2018-05-13T13:46:24.380Z,880
2018-05-13T13:47:33.023Z,932
2018-05-13T13:48:41.668Z,1000
2018-05-13T13:49:50.322Z,1088
2018-05-13T13:50:59.242Z,1204
2018-05-13T13:52:07.888Z,1356
2018-05-13T13:53:16.534Z,1520
2018-05-13T13:54:25.184Z,1720
2018-05-13T13:55:33.824Z,1828
2018-05-13T13:56:42.468Z,1940
2018-05-13T13:57:51.118Z,1980
2018-05-13T13:58:59.763Z,1968
2018-05-13T14:00:08.412Z,1928
2018-05-13T14:01:17.059Z,1852
2018-05-13T14:02:25.712Z,1768
2018-05-13T14:03:34.620Z,1644
2018-05-13T14:04:43.263Z,1516
2018-05-13T14:05:51.914Z,1376
2018-05-13T14:07:00.563Z,1244
2018-05-13T14:08:09.208Z,1124
2018-05-13T14:09:17.852Z,1040
2018-05-13T14:10:26.507Z,944
2018-05-13T14:11:35.153Z,880
2018-05-13T14:12:43.803Z,812
2018-05-13T14:13:52.442Z,744
2018-05-13T14:15:01.092Z,668
2018-05-13T14:16:09.743Z,600
2018-05-13T14:17:18.391Z,540
2018-05-13T14:18:27.311Z,496
2018-05-13T14:19:36.214Z,464
2018-05-13T14:20:44.878Z,440
2018-05-13T14:21:53.519Z,424
2018-05-13T14:23:02.442Z,400
2018-05-13T14:24:11.079Z,380
2018-05-13T14:25:19.997Z,364
2018-05-13T14:26:28.640Z,352
2018-05-13T14:27:37.295Z,344
2018-05-13T14:28:45.936Z,340
2018-05-13T14:29:54.586Z,332
2018-05-13T14:31:03.231Z,328
2018-05-13T14:32:11.885Z,304
2018-05-13T14:33:20.529Z,272
2018-05-13T14:34:29.169Z,236
2018-05-13T14:35:37.815Z,208
2018-05-13T14:36:46.459Z,196
2018-05-13T14:37:55.190Z,180
2018-05-13T14:39:11.824Z,200
2018-05-13T14:40:21.217Z,228
2018-05-13T14:41:29.856Z,232
2018-05-13T14:42:38.511Z,228
2018-05-13T14:43:47.156Z,224
2018-05-13T14:44:55.812Z,212
2018-05-13T14:46:04.708Z,200
2018-05-13T14:47:13.365Z,192
2018-05-13T14:48:22.013Z,184
2018-05-13T14:49:30.661Z,184
2018-05-13T14:50:39.297Z,184
2018-05-13T14:51:47.946Z,184
2018-05-13T14:52:56.863Z,184
2018-05-13T14:54:05.514Z,184
2018-05-13T14:55:14.696Z,188
2018-05-13T14:56:23.335Z,192
2018-05-13T14:57:31.994Z,192
2018-05-13T14:58:40.624Z,196
2018-05-13T14:59:49.280Z,200
2018-05-13T15:00:57.919Z,196
2018-05-13T15:02:06.571Z,196
2018-05-13T15:03:15.477Z,200
2018-05-13T15:04:24.136Z,200
2018-05-13T15:05:32.772Z,204
2018-05-13T15:06:41.425Z,216
2018-05-13T15:07:50.072Z,224
2018-05-13T15:08:58.710Z,252
2018-05-13T15:10:07.357Z,272
2018-05-13T15:11:16.007Z,288
2018-05-13T15:12:24.654Z,300
2018-05-13T15:13:33.307Z,312
2018-05-13T15:14:41.939Z,324
2018-05-13T15:15:50.589Z,340
2018-05-13T15:16:59.229Z,352
2018-05-13T15:18:07.884Z,372
2018-05-13T15:19:16.521Z,380
2018-05-13T15:20:25.173Z,392
2018-05-13T15:21:33.813Z,400
2018-05-13T15:22:42.469Z,400
2018-05-13T15:23:51.108Z,392
2018-05-13T15:24:59.757Z,376
2018-05-13T15:26:08.667Z,376
2018-05-13T15:27:17.322Z,372
2018-05-13T15:28:25.964Z,372
2018-05-13T15:29:34.607Z,380
2018-05-13T15:30:43.250Z,392
2018-05-13T15:31:51.894Z,408
2018-05-13T15:33:00.549Z,428
2018-05-13T15:34:09.189Z,448
2018-05-13T15:35:17.847Z,472
2018-05-13T15:36:26.495Z,484
2018-05-13T15:37:35.679Z,500
2018-05-13T15:38:44.582Z,508
2018-05-13T15:39:53.233Z,516
2018-05-13T15:41:01.869Z,516
2018-05-13T15:42:10.528Z,528
2018-05-13T15:43:19.668Z,544
2018-05-13T15:44:28.900Z,560
2018-05-13T15:45:37.542Z,596